Time,TemperatureF,DewpointF,PressureIn,WindDirection,WindDirectionDegrees,WindSpeedMPH,WindSpeedGustMPH,Humidity,HourlyPrecipIn,Conditions,Clouds,dailyrainin,SoftwareType,DateUTC
2013-10-05 00:02:00,31.0,10.0,-100.00,ESE,107,3.0,9.0,40,0.00,,,0.00,,2013-10-05 07:02:00,
2013-10-05 00:12:00,31.0,10.0,-100.00,ESE,107,3.0,9.0,40,0.00,,,0.00,,2013-10-05 07:12:00,
2013-10-05 00:42:00,34.0,14.0,-100.00,East,93,4.0,9.0,43,0.00,,,0.00,,2013-10-05 07:42:00,
2013-10-05 00:52:00,34.0,14.0,-100.00,East,93,4.0,9.0,43,0.00,,,0.00,,2013-10-05 07:52:00,
2013-10-05 01:02:00,34.0,14.0,-100.00,East,93,4.0,9.0,43,0.00,,,0.00,,2013-10-05 08:02:00,
2013-10-05 01:12:00,34.0,14.0,-100.00,East,93,4.0,9.0,43,0.00,,,0.00,,2013-10-05 08:12:00,
2013-10-05 01:42:00,36.0,11.0,-100.00,ENE,77,4.0,10.0,35,0.00,,,0.00,,2013-10-05 08:42:00,
2013-10-05 01:52:00,36.0,11.0,-100.00,ENE,77,4.0,10.0,35,0.00,,,0.00,,2013-10-05 08:52:00,
2013-10-05 02:02:00,36.0,11.0,-100.00,ENE,77,4.0,10.0,35,0.00,,,0.00,,2013-10-05 09:02:00,
2013-10-05 02:11:00,36.0,11.0,-100.00,ENE,77,4.0,10.0,35,0.00,,,0.00,,2013-10-05 09:11:00,
2013-10-05 02:43:00,33.0,11.0,-100.00,East,95,4.0,11.0,40,0.00,,,0.00,,2013-10-05 09:43:00,
2013-10-05 02:54:00,33.0,11.0,-100.00,East,95,4.0,11.0,40,0.00,,,0.00,,2013-10-05 09:54:00,
2013-10-05 03:03:00,33.0,11.0,-100.00,East,95,4.0,11.0,40,0.00,,,0.00,,2013-10-05 10:03:00,
2013-10-05 03:12:00,33.0,11.0,-100.00,East,95,4.0,11.0,40,0.00,,,0.00,,2013-10-05 10:12:00,
2013-10-05 03:43:00,36.0,13.0,-100.00,East,87,6.0,11.0,38,0.00,,,0.00,,2013-10-05 10:43:00,
2013-10-05 03:53:00,36.0,13.0,-100.00,East,87,6.0,11.0,38,0.00,,,0.00,,2013-10-05 10:53:00,
2013-10-05 04:02:00,36.0,13.0,-100.00,East,87,6.0,11.0,38,0.00,,,0.00,,2013-10-05 11:02:00,
2013-10-05 04:11:00,36.0,13.0,-100.00,East,87,6.0,11.0,38,0.00,,,0.00,,2013-10-05 11:11:00,
2013-10-05 04:43:00,36.0,11.0,-100.00,ESE,105,6.0,13.0,35,0.00,,,0.00,,2013-10-05 11:43:00,
2013-10-05 04:52:00,36.0,11.0,-100.00,ESE,105,6.0,13.0,35,0.00,,,0.00,,2013-10-05 11:52:00,
2013-10-05 05:01:00,36.0,11.0,-100.00,ESE,105,6.0,13.0,35,0.00,,,0.00,,2013-10-05 12:01:00,
2013-10-05 05:12:00,36.0,11.0,-100.00,ESE,105,6.0,13.0,35,0.00,,,0.00,,2013-10-05 12:12:00,
2013-10-05 05:42:00,29.0,10.0,-100.00,East,82,4.0,9.0,44,0.00,,,0.00,,2013-10-05 12:42:00,
2013-10-05 05:53:00,29.0,10.0,-100.00,East,82,4.0,9.0,44,0.00,,,0.00,,2013-10-05 12:53:00,
2013-10-05 06:02:00,29.0,10.0,-100.00,East,82,4.0,9.0,44,0.00,,,0.00,,2013-10-05 13:02:00,
2013-10-05 06:12:00,29.0,10.0,-100.00,East,82,4.0,9.0,44,0.00,,,0.00,,2013-10-05 13:12:00,
2013-10-05 06:42:00,31.0,10.0,-100.00,ESE,102,3.0,9.0,40,0.00,,,0.00,,2013-10-05 13:42:00,
2013-10-05 06:52:00,31.0,10.0,-100.00,ESE,102,3.0,9.0,40,0.00,,,0.00,,2013-10-05 13:52:00,
2013-10-05 07:02:00,31.0,10.0,-100.00,ESE,102,3.0,9.0,40,0.00,,,0.00,,2013-10-05 14:02:00,
2013-10-05 07:11:00,31.0,10.0,-100.00,ESE,102,3.0,9.0,40,0.00,,,0.00,,2013-10-05 14:11:00,
2013-10-05 07:42:00,29.0,13.0,-100.00,ESE,107,3.0,6.0,51,0.00,,,0.00,,2013-10-05 14:42:00,
2013-10-05 07:52:00,29.0,13.0,-100.00,ESE,107,3.0,6.0,51,0.00,,,0.00,,2013-10-05 14:52:00,
2013-10-05 08:02:00,29.0,13.0,-100.00,ESE,107,3.0,6.0,51,0.00,,,0.00,,2013-10-05 15:02:00,
2013-10-05 08:12:00,29.0,13.0,-100.00,ESE,107,3.0,6.0,51,0.00,,,0.00,,2013-10-05 15:12:00,
2013-10-05 08:53:00,42.0,16.0,-100.00,NE,44,5.0,11.0,34,0.00,,,-99.99,,2013-10-05 15:53:00,
2013-10-05 09:03:00,42.0,16.0,-100.00,NE,44,5.0,11.0,34,0.00,,,-99.99,,2013-10-05 16:03:00,
2013-10-05 09:13:00,42.0,16.0,-100.00,NE,44,5.0,11.0,34,0.00,,,-99.99,,2013-10-05 16:13:00,
2013-10-05 09:53:00,48.0,17.0,-100.00,ENE,75,6.0,12.0,29,0.00,,,0.00,,2013-10-05 16:53:00,
2013-10-05 10:02:00,48.0,17.0,-100.00,ENE,75,6.0,12.0,29,0.00,,,0.00,,2013-10-05 17:02:00,
2013-10-05 10:12:00,48.0,17.0,-100.00,ENE,75,6.0,12.0,29,0.00,,,0.00,,2013-10-05 17:12:00,
2013-10-05 10:52:00,52.0,17.0,-100.00,East,96,7.0,13.0,25,0.00,,,0.00,,2013-10-05 17:52:00,
2013-10-05 11:02:00,52.0,17.0,-100.00,East,96,7.0,13.0,25,0.00,,,0.00,,2013-10-05 18:02:00,
2013-10-05 11:12:00,52.0,17.0,-100.00,East,96,7.0,13.0,25,0.00,,,0.00,,2013-10-05 18:12:00,
2013-10-05 11:42:00,54.0,19.0,-100.00,North,10,8.0,16.0,25,0.00,,,0.00,,2013-10-05 18:42:00,
2013-10-05 11:52:00,54.0,19.0,-100.00,North,10,8.0,16.0,25,0.00,,,0.00,,2013-10-05 18:52:00,
2013-10-05 12:01:00,54.0,19.0,-100.00,North,10,8.0,16.0,25,0.00,,,0.00,,2013-10-05 19:01:00,
2013-10-05 12:11:00,54.0,19.0,-100.00,North,10,8.0,16.0,25,0.00,,,0.00,,2013-10-05 19:11:00,
2013-10-05 12:42:00,56.0,18.0,-100.00,NNE,21,9.0,18.0,22,0.00,,,0.00,,2013-10-05 19:42:00,
2013-10-05 12:52:00,56.0,18.0,-100.00,NNE,21,9.0,18.0,22,0.00,,,0.00,,2013-10-05 19:52:00,
2013-10-05 13:02:00,56.0,18.0,-100.00,NNE,21,9.0,18.0,22,0.00,,,0.00,,2013-10-05 20:02:00,
2013-10-05 13:11:00,56.0,18.0,-100.00,NNE,21,9.0,18.0,22,0.00,,,0.00,,2013-10-05 20:11:00,
2013-10-05 13:42:00,58.0,18.0,-100.00,NE,35,8.0,18.0,21,0.00,,,0.00,,2013-10-05 20:42:00,
2013-10-05 13:52:00,58.0,18.0,-100.00,NE,35,8.0,18.0,21,0.00,,,0.00,,2013-10-05 20:52:00,
2013-10-05 14:01:00,58.0,18.0,-100.00,NE,35,8.0,18.0,21,0.00,,,0.00,,2013-10-05 21:01:00,
2013-10-05 14:12:00,58.0,18.0,-100.00,NE,35,8.0,18.0,21,0.00,,,0.00,,2013-10-05 21:12:00,
2013-10-05 14:44:00,59.0,17.0,-100.00,NNE,22,9.0,19.0,19,0.00,,,0.00,,2013-10-05 21:44:00,
2013-10-05 14:54:00,59.0,17.0,-100.00,NNE,22,9.0,19.0,19,0.00,,,0.00,,2013-10-05 21:54:00,
2013-10-05 15:04:00,59.0,17.0,-100.00,NNE,22,9.0,19.0,19,0.00,,,0.00,,2013-10-05 22:04:00,
2013-10-05 15:12:00,59.0,17.0,-100.00,NNE,22,9.0,19.0,19,0.00,,,0.00,,2013-10-05 22:12:00,
2013-10-05 15:42:00,59.0,17.0,-100.00,NNE,19,8.0,18.0,19,0.00,,,0.00,,2013-10-05 22:42:00,
2013-10-05 15:53:00,59.0,17.0,-100.00,NNE,19,8.0,18.0,19,0.00,,,0.00,,2013-10-05 22:53:00,
2013-10-05 16:02:00,59.0,17.0,-100.00,NNE,19,8.0,18.0,19,0.00,,,0.00,,2013-10-05 23:02:00,
2013-10-05 16:13:00,59.0,17.0,-100.00,NNE,19,8.0,18.0,19,0.00,,,0.00,,2013-10-05 23:13:00,
2013-10-05 16:43:00,57.0,17.0,-100.00,NNE,33,9.0,20.0,21,0.00,,,0.00,,2013-10-05 23:43:00,
2013-10-05 16:53:00,57.0,17.0,-100.00,NNE,33,9.0,20.0,21,0.00,,,0.00,,2013-10-05 23:53:00,
2013-10-05 17:02:00,57.0,17.0,-100.00,NNE,33,9.0,20.0,21,0.00,,,0.00,,2013-10-06 00:02:00,
2013-10-05 17:12:00,57.0,17.0,-100.00,NNE,33,9.0,20.0,21,0.00,,,0.00,,2013-10-06 00:12:00,
2013-10-05 17:43:00,55.0,17.0,-100.00,NE,49,7.0,16.0,22,0.00,,,0.00,,2013-10-06 00:43:00,
2013-10-05 17:52:00,55.0,17.0,-100.00,NE,49,7.0,16.0,22,0.00,,,0.00,,2013-10-06 00:52:00,
2013-10-05 18:02:00,55.0,17.0,-100.00,NE,49,7.0,16.0,22,0.00,,,0.00,,2013-10-06 01:02:00,
2013-10-05 18:11:00,55.0,17.0,-100.00,NE,49,7.0,16.0,22,0.00,,,0.00,,2013-10-06 01:11:00,
2013-10-05 18:42:00,49.0,16.0,-100.00,East,80,5.0,16.0,26,0.00,,,0.00,,2013-10-06 01:42:00,
2013-10-05 18:52:00,49.0,16.0,-100.00,East,80,5.0,16.0,26,0.00,,,0.00,,2013-10-06 01:52:00,
2013-10-05 19:02:00,49.0,16.0,-100.00,East,80,5.0,16.0,26,0.00,,,0.00,,2013-10-06 02:02:00,
2013-10-05 19:11:00,49.0,16.0,-100.00,East,80,5.0,16.0,26,0.00,,,0.00,,2013-10-06 02:11:00,
2013-10-05 19:42:00,46.0,15.0,-100.00,ENE,72,3.0,14.0,28,0.00,,,0.00,,2013-10-06 02:42:00,
2013-10-05 19:52:00,46.0,15.0,-100.00,ENE,72,3.0,14.0,28,0.00,,,0.00,,2013-10-06 02:52:00,
2013-10-05 20:02:00,46.0,15.0,-100.00,ENE,72,3.0,14.0,28,0.00,,,0.00,,2013-10-06 03:02:00,
2013-10-05 20:12:00,46.0,15.0,-100.00,ENE,72,3.0,14.0,28,0.00,,,0.00,,2013-10-06 03:12:00,
2013-10-05 20:45:00,45.0,18.0,-100.00,ENE,77,5.0,12.0,34,0.00,,,0.00,,2013-10-06 03:45:00,
2013-10-05 20:54:00,45.0,18.0,-100.00,ENE,77,5.0,12.0,34,0.00,,,0.00,,2013-10-06 03:54:00,
2013-10-05 21:13:00,45.0,18.0,-100.00,ENE,77,5.0,12.0,34,0.00,,,0.00,,2013-10-06 04:13:00,
2013-10-05 21:44:00,39.0,13.0,-100.00,ESE,108,4.0,12.0,34,0.00,,,0.00,,2013-10-06 04:44:00,
2013-10-05 21:54:00,39.0,13.0,-100.00,ESE,108,4.0,12.0,34,0.00,,,0.00,,2013-10-06 04:54:00,
2013-10-05 22:03:00,39.0,13.0,-100.00,ESE,108,4.0,12.0,34,0.00,,,0.00,,2013-10-06 05:03:00,
2013-10-05 22:13:00,39.0,13.0,-100.00,ESE,108,4.0,12.0,34,0.00,,,0.00,,2013-10-06 05:13:00,
2013-10-05 22:43:00,36.0,18.0,-100.00,ENE,66,4.0,10.0,47,0.00,,,0.00,,2013-10-06 05:43:00,
2013-10-05 22:52:00,36.0,18.0,-100.00,ENE,66,4.0,10.0,47,0.00,,,0.00,,2013-10-06 05:52:00,
2013-10-05 23:02:00,36.0,18.0,-100.00,ENE,66,4.0,10.0,47,0.00,,,0.00,,2013-10-06 06:02:00,
2013-10-05 23:12:00,36.0,18.0,-100.00,ENE,66,4.0,10.0,47,0.00,,,0.00,,2013-10-06 06:12:00,
2013-10-05 23:42:00,38.0,7.0,-100.00,East,85,3.0,8.0,27,0.00,,,0.00,,2013-10-06 06:42:00,
2013-10-05 23:52:00,38.0,7.0,-100.00,East,85,3.0,8.0,27,0.00,,,0.00,,2013-10-06 06:52:00,